Telerghma Airport

DAAM · Mila, 阿尔及利亚

使用的METAR站距离机场30 km。
罗盘
风向 的 风向 的 风向 到 风向 020° Telerghma Airport 8/26
风: 10 kt, 3 beaufort

5 kt

9 kt
改变
0 ft 1.000 2.000 3.000 4.000 5.000
Cloud Cloud
FEW 3.000
METAR DABC 241700Z 02010KT 350V060 9999 FEW030 24/13 Q1014

METAR Telerghma Airport - DAAM

Telerghma Airport是,阿尔及利亚中的小机场。 该机场位于纬度36,10873和经度6,36448。 该机场有一条跑道: 8/26. 本场的ICAO机场代码为DAAM。 机场在Alger FIR中。

该航空气象观测是针对Mohamed Boudiaf International Airport在2024年6月24日 18:00, 当地时间进行的。

机场观察

风向为020°,速度为10 kt。 风向在350°和060°之间变化。

可见度为10 km 或者更多。

有几云在3.000 ft的高度。 没有观察到天花板。

温度和风寒是24 °C。 露点为13 °C,相对湿度为50%。 海平面上的气压为1014 hPa (QNH)。

白天

今天,太阳从05:18升起,在19:55降落。 这适用于Telerghma Airport,世界夏令时可能有所不同。 当地时间与世界标准时间之间的时差为+1 小时。 夏令时目前正在进行中。

公司介绍

我们没有关于这个机场的公司信息。

体会

到Vliegles.nl去找飞行课程,跳伞和其他飞行体验。 浏览页面,了解Telerghma Airport附近所有可用的活动。 你也可以使用搜索功能来寻找你所在地附近的特定飞行课程、跳伞或其他飞行体验。

跑道

Id 标题 侧风 逆风 侧风 %
8/26 079°-259° 9 kt 5 kt 86 %

逆风成分最大的方向会被突出显示,并用于横风计算。 这并不一定意味着这个方向在使用。

乌云

3.000 ft FEW 几云

温度 & 天气

温度 24 °C
露点 13 °C
相对湿度 50%
Kp-index 2 (0-9)

白天

日出
05:17
中午
12:36
日落
19:54 (1:27)

小工具

你想在你的网站上有一个关于Telerghma Airport的当前航空天气(METAR)的小部件吗?

显示HTML代码
报告变更